Time;durP1;ratioP1;P1;durP2;ratioP2;P2;SDS_P1;SDS_P2;PMS_P1;PMS_P2;Temp;Humidity;BMP_temperature;BMP_pressure;BME280_temperature;BME280_humidity;BME280_pressure;Samples;Min_cycle;Max_cycle;Signal;HPM_P1;HPM_P2
2023/08/11 00:02:05;;;;;;;4.90;4.30;;;;;;;19.54;67.29;99984.91;106714;1254;71488;-80
2023/08/11 00:04:32;;;;;;;4.80;4.00;;;;;;;19.52;67.56;99979.52;106171;1259;70336;-83
2023/08/11 00:07:02;;;;;;;5.40;4.40;;;;;;;19.51;67.83;99975.61;105824;1256;71440;-83
2023/08/11 00:09:30;;;;;;;4.80;3.90;;;;;;;19.49;67.98;99973.59;105804;1260;60403;-81
2023/08/11 00:11:57;;;;;;;7.10;3.90;;;;;;;19.55;68.59;99972.84;105812;1257;59842;-81
2023/08/11 00:14:24;;;;;;;5.40;4.00;;;;;;;19.62;68.83;99969.12;105717;1254;71951;-81
2023/08/11 00:16:52;;;;;;;6.70;3.90;;;;;;;19.62;68.88;99966.63;105828;1253;70761;-81
2023/08/11 00:19:20;;;;;;;4.60;4.10;;;;;;;19.58;68.51;99963.81;105901;1259;71089;-79
2023/08/11 00:21:47;;;;;;;7.10;4.40;;;;;;;19.52;68.36;99961.84;107724;1253;59344;-78
2023/08/11 00:24:15;;;;;;;6.00;3.90;;;;;;;19.49;68.63;99961.74;107144;1255;59733;-77
2023/08/11 00:26:42;;;;;;;6.00;4.30;;;;;;;19.46;68.84;99960.20;107816;1254;71933;-80
2023/08/11 00:29:11;;;;;;;4.70;4.00;;;;;;;19.41;69.62;99962.31;108124;1254;69334;-79
2023/08/11 00:31:39;;;;;;;4.60;3.60;;;;;;;19.36;69.50;99958.74;108190;1254;72461;-79
2023/08/11 00:34:07;;;;;;;5.90;4.20;;;;;;;19.27;69.64;99957.00;107951;1254;60043;-80
2023/08/11 00:36:34;;;;;;;7.50;3.80;;;;;;;19.15;69.98;99959.91;106837;1254;60100;-78
2023/08/11 00:39:02;;;;;;;5.10;3.80;;;;;;;19.08;70.16;99962.20;106539;1253;73013;-77
2023/08/11 00:41:30;;;;;;;5.10;3.80;;;;;;;19.12;70.47;99961.52;106502;1258;69208;-77
2023/08/11 00:43:57;;;;;;;6.20;4.10;;;;;;;19.16;70.47;99962.55;106021;1254;71219;-78
2023/08/11 00:46:25;;;;;;;6.20;4.10;;;;;;;19.14;70.80;99960.79;106108;1254;59753;-78
2023/08/11 00:48:53;;;;;;;5.00;4.00;;;;;;;19.11;71.20;99959.23;106227;1252;59500;-78
2023/08/11 00:51:22;;;;;;;6.80;3.90;;;;;;;19.10;71.50;99951.54;105900;1260;73060;-78
2023/08/11 00:53:50;;;;;;;5.50;4.10;;;;;;;19.07;71.16;99950.11;105764;1258;69223;-79
2023/08/11 00:56:21;;;;;;;5.30;4.10;;;;;;;19.02;71.21;99948.77;105818;1254;71496;-77
2023/08/11 00:58:50;;;;;;;5.70;4.50;;;;;;;18.97;71.56;99944.68;105826;1260;60086;-79
2023/08/11 01:01:17;;;;;;;5.90;4.60;;;;;;;18.92;71.68;99942.44;107658;1252;60047;-77
2023/08/11 01:03:47;;;;;;;5.30;3.90;;;;;;;18.89;72.01;99941.76;107527;1253;71585;-79
2023/08/11 01:06:34;;;;;;;5.30;3.80;;;;;;;18.97;71.79;99938.85;105873;1257;69048;-80
2023/08/11 01:09:16;;;;;;;5.40;4.10;;;;;;;18.99;71.93;99934.30;105873;1256;70656;-82
2023/08/11 01:12:04;;;;;;;7.00;4.50;;;;;;;18.96;72.15;99933.42;105766;1258;60313;-79
2023/08/11 01:14:56;;;;;;;7.10;4.90;;;;;;;18.86;72.28;99930.25;106246;1253;59656;-78
2023/08/11 01:17:27;;;;;;;6.30;4.90;;;;;;;18.73;72.36;99921.90;106965;1254;73228;-75
2023/08/11 01:19:55;;;;;;;4.60;3.90;;;;;;;18.67;72.68;99925.27;106329;1253;68894;-76
2023/08/11 01:22:24;;;;;;;4.30;3.90;;;;;;;18.60;72.99;99920.50;106010;1254;72906;-77
2023/08/11 01:24:51;;;;;;;5.40;4.30;;;;;;;18.54;73.56;99914.54;105999;1257;59617;-78
2023/08/11 01:27:18;;;;;;;5.30;4.50;;;;;;;18.56;73.64;99913.13;105712;1254;60044;-78
2023/08/11 01:29:46;;;;;;;7.90;4.40;;;;;;;18.56;73.78;99910.55;106627;1253;72768;-76
2023/08/11 01:32:13;;;;;;;5.20;3.70;;;;;;;18.51;74.11;99912.48;108083;1253;68692;-77
2023/08/11 01:34:41;;;;;;;6.00;4.40;;;;;;;18.43;74.56;99907.52;107629;1257;71454;-78
2023/08/11 01:37:08;;;;;;;6.80;4.30;;;;;;;18.39;75.10;99904.02;106952;1252;59527;-79
2023/08/11 01:39:36;;;;;;;4.90;4.40;;;;;;;18.38;75.57;99897.58;107394;1254;59200;-77
2023/08/11 01:42:05;;;;;;;13.90;5.00;;;;;;;18.40;75.93;99896.37;108624;1252;71626;-77
2023/08/11 01:44:33;;;;;;;8.70;4.50;;;;;;;18.53;75.78;99894.06;106400;1254;69068;-78
2023/08/11 01:47:01;;;;;;;5.60;4.20;;;;;;;18.63;75.57;99894.73;106209;1253;71307;-78
2023/08/11 01:49:29;;;;;;;6.10;4.30;;;;;;;18.66;75.53;99895.02;108583;1253;59585;-76
2023/08/11 01:51:57;;;;;;;5.60;4.30;;;;;;;18.68;75.57;99893.34;106305;1259;59972;-77
2023/08/11 01:54:24;;;;;;;6.00;4.30;;;;;;;18.67;75.37;99891.44;105753;1253;72281;-79
2023/08/11 01:56:52;;;;;;;5.60;4.20;;;;;;;18.65;75.29;99891.37;105511;1257;70160;-79
2023/08/11 01:59:19;;;;;;;9.60;4.70;;;;;;;18.64;75.48;99889.52;105576;1254;71347;-81
2023/08/11 02:01:47;;;;;;;6.80;5.10;;;;;;;18.72;75.53;99883.67;105758;1253;61941;-80
2023/08/11 02:04:14;;;;;;;4.80;4.30;;;;;;;18.78;75.63;99879.95;105837;1254;59659;-78
2023/08/11 02:06:42;;;;;;;8.90;4.60;;;;;;;18.76;75.52;99876.77;105718;1253;71464;-81
2023/08/11 02:09:09;;;;;;;8.20;4.70;;;;;;;18.72;75.78;99868.39;105861;1257;68443;-81
2023/08/11 02:11:37;;;;;;;5.00;4.20;;;;;;;18.69;75.89;99866.67;105915;1252;72697;-80
2023/08/11 02:14:05;;;;;;;6.90;5.00;;;;;;;18.63;75.99;99867.34;105964;1251;59651;-78
2023/08/11 02:16:33;;;;;;;10.60;4.70;;;;;;;18.56;75.94;99872.77;105870;1256;59551;-80
2023/08/11 02:19:01;;;;;;;8.20;4.90;;;;;;;18.60;76.03;99875.64;105797;1258;71801;-79
2023/08/11 02:21:28;;;;;;;5.20;4.20;;;;;;;18.63;75.97;99874.67;107147;1251;69595;-78
2023/08/11 02:23:55;;;;;;;8.60;4.90;;;;;;;18.59;75.90;99878.87;107106;1253;71091;-78
2023/08/11 02:26:23;;;;;;;5.50;4.70;;;;;;;18.51;76.26;99880.16;105900;1253;59750;-79
2023/08/11 02:28:50;;;;;;;4.90;4.30;;;;;;;18.42;76.59;99882.29;106366;1251;59564;-77
2023/08/11 02:31:18;;;;;;;6.00;4.70;;;;;;;18.30;76.78;99885.46;107933;1251;71927;-77
2023/08/11 02:33:46;;;;;;;7.10;4.80;;;;;;;18.14;77.31;99882.44;107460;1253;69144;-78
2023/08/11 02:36:14;;;;;;;7.40;4.10;;;;;;;18.11;77.73;99884.23;105707;1253;72441;-77
2023/08/11 02:38:41;;;;;;;6.50;4.90;;;;;;;18.15;77.95;99883.42;106317;1259;59523;-78
2023/08/11 02:41:09;;;;;;;8.10;4.50;;;;;;;18.09;78.20;99880.69;106351;1259;60058;-77
2023/08/11 02:43:36;;;;;;;5.80;4.80;;;;;;;17.99;78.61;99876.59;107291;1251;70932;-77
2023/08/11 02:46:05;;;;;;;7.50;5.10;;;;;;;17.88;78.78;99875.30;108028;1256;69042;-78
2023/08/11 02:48:38;;;;;;;7.20;4.60;;;;;;;17.76;79.13;99872.59;107759;1254;70545;-78
2023/08/11 02:51:06;;;;;;;7.40;5.20;;;;;;;17.77;79.49;99873.17;107922;1258;60399;-78
2023/08/11 02:53:33;;;;;;;10.00;5.20;;;;;;;17.82;79.85;99873.86;107153;1253;59719;-75
2023/08/11 02:56:05;;;;;;;6.20;4.70;;;;;;;17.79;79.89;99866.21;106325;1254;73068;-77
2023/08/11 02:58:33;;;;;;;6.20;5.40;;;;;;;17.68;80.07;99866.12;105863;1260;69057;-77
2023/08/11 03:01:01;;;;;;;8.70;6.20;;;;;;;17.60;80.50;99863.67;107012;1251;72464;-80
2023/08/11 03:03:28;;;;;;;8.80;5.30;;;;;;;17.55;80.73;99862.82;108414;1253;60024;-79
2023/08/11 03:05:56;;;;;;;6.00;5.10;;;;;;;17.59;80.70;99864.05;106176;1251;60546;-79
2023/08/11 03:08:24;;;;;;;10.60;5.00;;;;;;;17.62;80.67;99864.70;106019;1253;71804;-77
2023/08/11 03:10:52;;;;;;;6.20;4.90;;;;;;;17.58;80.79;99863.68;106139;1260;67853;-80
2023/08/11 03:13:28;;;;;;;8.60;5.60;;;;;;;17.50;81.10;99865.97;105909;1254;71622;-78
2023/08/11 03:15:58;;;;;;;7.00;5.60;;;;;;;17.43;81.30;99863.55;105821;1256;60687;-75
2023/08/11 03:18:27;;;;;;;8.60;5.30;;;;;;;17.38;81.32;99862.89;105939;1257;60429;-78
2023/08/11 03:20:54;;;;;;;13.40;5.20;;;;;;;17.44;81.38;99865.37;105796;1252;71622;-80
2023/08/11 03:23:40;;;;;;;7.00;5.20;;;;;;;17.52;81.32;99864.73;105634;1259;69082;-79
2023/08/11 03:26:09;;;;;;;7.90;5.70;;;;;;;17.50;81.67;99865.77;105580;1256;71227;-79
2023/08/11 03:28:37;;;;;;;6.60;5.30;;;;;;;17.50;81.68;99864.94;106165;1254;60622;-79
2023/08/11 03:31:05;;;;;;;6.90;4.90;;;;;;;17.50;81.83;99865.72;108311;1256;59183;-78
2023/08/11 03:33:34;;;;;;;6.40;5.20;;;;;;;17.61;81.85;99865.94;108451;1253;73824;-79
2023/08/11 03:36:08;;;;;;;7.70;5.00;;;;;;;17.73;81.70;99865.16;106886;1251;69425;-78
2023/08/11 03:38:36;;;;;;;6.40;5.60;;;;;;;17.76;81.29;99865.02;108439;1251;71818;-80
2023/08/11 03:41:04;;;;;;;11.20;7.20;;;;;;;17.75;81.08;99868.60;106449;1257;60441;-77
2023/08/11 03:43:31;;;;;;;10.30;6.10;;;;;;;17.73;80.94;99866.73;107339;1253;60427;-76
2023/08/11 03:45:59;;;;;;;13.40;6.00;;;;;;;17.70;80.54;99866.48;106366;1253;72610;-78
2023/08/11 03:48:27;;;;;;;6.70;5.30;;;;;;;17.69;80.29;99864.84;105992;1253;67733;-78
2023/08/11 03:51:01;;;;;;;7.40;5.40;;;;;;;17.68;80.42;99870.96;106015;1256;70214;-76
2023/08/11 03:53:29;;;;;;;8.20;5.30;;;;;;;17.65;80.41;99870.31;106308;1257;60549;-79
2023/08/11 03:55:57;;;;;;;6.50;5.20;;;;;;;17.62;80.52;99866.27;106236;1251;60462;-75
2023/08/11 03:58:25;;;;;;;7.10;4.90;;;;;;;17.63;80.53;99867.27;106111;1253;72946;-78
2023/08/11 04:00:54;;;;;;;9.20;5.00;;;;;;;17.67;80.64;99870.85;107534;1251;69209;-78
2023/08/11 04:03:22;;;;;;;8.00;5.40;;;;;;;17.82;80.99;99868.70;106789;1256;71427;-77
2023/08/11 04:05:50;;;;;;;12.00;9.80;;;;;;;17.98;80.17;99865.85;105878;1258;60920;-77
2023/08/11 04:08:19;;;;;;;12.80;10.10;;;;;;;18.04;79.65;99862.77;105698;1260;60450;-77
2023/08/11 04:10:46;;;;;;;8.00;5.70;;;;;;;18.09;79.95;99863.11;105792;1254;72600;-80
2023/08/11 04:13:14;;;;;;;7.10;5.00;;;;;;;18.15;80.12;99858.23;105995;1259;69015;-79
2023/08/11 04:15:45;;;;;;;5.90;5.20;;;;;;;18.22;79.97;99861.18;105767;1260;72725;-80
2023/08/11 04:18:16;;;;;;;6.60;5.00;;;;;;;18.30;79.80;99862.45;106046;1254;60449;-79
2023/08/11 04:20:44;;;;;;;7.90;4.70;;;;;;;18.43;78.69;99865.20;106816;1251;60465;-78
2023/08/11 04:23:12;;;;;;;7.80;5.00;;;;;;;18.51;78.84;99865.52;108461;1253;72944;-80
2023/08/11 04:25:39;;;;;;;5.30;4.70;;;;;;;18.55;78.47;99870.09;106922;1258;69278;-78
2023/08/11 04:28:08;;;;;;;9.10;5.20;;;;;;;18.62;77.97;99873.27;106035;1256;70469;-80
2023/08/11 04:30:35;;;;;;;6.90;5.40;;;;;;;18.68;77.78;99878.48;108781;1251;60373;-79
2023/08/11 04:33:03;;;;;;;9.00;4.90;;;;;;;18.76;77.21;99882.23;108768;1256;59235;-79
2023/08/11 04:35:33;;;;;;;6.40;4.70;;;;;;;18.81;76.33;99879.36;106487;1254;72652;-79
2023/08/11 04:38:00;;;;;;;6.70;4.50;;;;;;;18.92;76.26;99881.67;105853;1252;70475;-80
2023/08/11 04:40:29;;;;;;;7.50;5.20;;;;;;;19.05;76.46;99883.50;105947;1256;71217;-81
2023/08/11 04:42:57;;;;;;;8.00;4.50;;;;;;;19.13;76.50;99884.48;105838;1254;60562;-79
2023/08/11 04:45:29;;;;;;;5.70;4.70;;;;;;;19.20;76.43;99885.25;105882;1256;60489;-79
2023/08/11 04:47:57;;;;;;;7.10;5.50;;;;;;;19.27;76.07;99886.27;105853;1253;74027;-81
2023/08/11 04:50:25;;;;;;;6.00;4.60;;;;;;;19.32;75.91;99889.34;106013;1254;70383;-81
2023/08/11 04:52:55;;;;;;;6.60;4.60;;;;;;;19.37;75.77;99896.83;105903;1254;70484;-81
2023/08/11 04:55:22;;;;;;;4.90;4.10;;;;;;;19.50;74.95;99896.56;105900;1254;61669;-81
2023/08/11 04:57:50;;;;;;;8.00;5.40;;;;;;;19.57;74.35;99901.42;105976;1255;60348;-80
2023/08/11 05:00:19;;;;;;;6.20;5.60;;;;;;;19.60;74.40;99897.91;106075;1256;73962;-81
2023/08/11 05:02:47;;;;;;;7.60;4.90;;;;;;;19.63;74.16;99893.48;108449;1252;70428;-80
2023/08/11 05:05:15;;;;;;;6.60;4.90;;;;;;;19.66;73.84;99896.02;107709;1258;71126;-81
2023/08/11 05:07:42;;;;;;;6.60;4.80;;;;;;;19.67;73.47;99903.81;106082;1254;60316;-80
2023/08/11 05:10:10;;;;;;;6.80;5.10;;;;;;;19.68;73.31;99901.98;106617;1254;60342;-78
2023/08/11 05:12:37;;;;;;;9.10;5.20;;;;;;;19.76;72.46;99901.21;107294;1252;73981;-78
2023/08/11 05:15:06;;;;;;;8.10;5.00;;;;;;;19.81;72.57;99900.38;108935;1253;68813;-80
2023/08/11 05:17:33;;;;;;;7.10;4.90;;;;;;;19.84;72.63;99899.00;108440;1254;71617;-78
2023/08/11 05:20:01;;;;;;;6.10;5.00;;;;;;;19.90;72.87;99896.37;106209;1254;60508;-76
2023/08/11 05:22:28;;;;;;;8.90;5.30;;;;;;;19.98;72.66;99897.23;105777;1254;60623;-84
2023/08/11 05:24:55;;;;;;;6.60;5.10;;;;;;;20.08;71.81;99894.70;106785;1257;74155;-79
2023/08/11 05:27:23;;;;;;;6.80;5.00;;;;;;;20.16;71.51;99893.67;106933;1254;70136;-79
2023/08/11 05:29:50;;;;;;;9.50;5.50;;;;;;;20.27;71.75;99897.74;106692;1254;72725;-77
2023/08/11 05:32:18;;;;;;;7.70;5.00;;;;;;;20.46;71.32;99900.48;107144;1253;60470;-78
2023/08/11 05:34:45;;;;;;;8.20;4.80;;;;;;;20.62;70.88;99899.56;108066;1252;60568;-78
2023/08/11 05:37:13;;;;;;;6.60;5.10;;;;;;;20.71;70.28;99895.78;108444;1253;72583;-79
2023/08/11 05:39:41;;;;;;;6.40;4.50;;;;;;;20.80;70.34;99893.10;106034;1258;68898;-77
2023/08/11 05:42:08;;;;;;;6.60;5.10;;;;;;;20.91;69.87;99890.20;107200;1253;72431;-79
2023/08/11 05:44:36;;;;;;;5.00;4.50;;;;;;;21.01;69.14;99891.84;107696;1254;60510;-78
2023/08/11 05:47:05;;;;;;;15.10;10.80;;;;;;;21.10;69.06;99892.12;105987;1257;60319;-80
2023/08/11 05:49:33;;;;;;;8.60;5.70;;;;;;;21.17;68.84;99891.41;105567;1253;73759;-80
2023/08/11 05:52:01;;;;;;;6.80;5.00;;;;;;;21.21;68.74;99886.37;105859;1253;70097;-81
2023/08/11 05:54:28;;;;;;;9.00;5.30;;;;;;;21.25;68.58;99885.96;105577;1257;71504;-80
2023/08/11 05:56:57;;;;;;;11.90;5.40;;;;;;;21.26;68.17;99885.56;105903;1253;60515;-79
2023/08/11 05:59:25;;;;;;;10.10;5.00;;;;;;;21.27;68.49;99882.34;105824;1259;60362;-79
2023/08/11 06:01:53;;;;;;;6.60;5.10;;;;;;;21.33;68.43;99881.74;105907;1253;73557;-79
2023/08/11 06:04:20;;;;;;;6.50;5.30;;;;;;;21.41;68.24;99879.07;106175;1258;69249;-79
2023/08/11 06:06:47;;;;;;;8.20;4.90;;;;;;;21.51;68.39;99877.95;106871;1254;71462;-78
2023/08/11 06:09:15;;;;;;;7.00;5.50;;;;;;;21.63;68.33;99879.27;105966;1253;60490;-79
2023/08/11 06:11:42;;;;;;;7.70;5.20;;;;;;;21.71;67.84;99877.08;106044;1258;61439;-79
2023/08/11 06:14:10;;;;;;;10.10;5.20;;;;;;;21.76;67.62;99875.47;105995;1258;73842;-79
2023/08/11 06:16:37;;;;;;;8.20;4.80;;;;;;;21.80;67.43;99867.20;105864;1253;70368;-78
2023/08/11 06:19:05;;;;;;;6.80;4.50;;;;;;;21.84;67.56;99868.09;106004;1260;71500;-79
2023/08/11 06:21:32;;;;;;;11.50;5.30;;;;;;;21.90;67.44;99868.05;106292;1254;60570;-76
2023/08/11 06:24:00;;;;;;;7.50;5.00;;;;;;;21.95;67.32;99869.17;106736;1253;60551;-78
2023/08/11 06:26:27;;;;;;;9.20;5.10;;;;;;;22.03;67.54;99871.02;107397;1253;73046;-79
2023/08/11 06:28:54;;;;;;;5.70;5.10;;;;;;;22.12;67.15;99873.64;107445;1253;68979;-78
2023/08/11 06:31:22;;;;;;;7.60;5.30;;;;;;;22.20;67.08;99873.63;107284;1254;71388;-79
2023/08/11 06:33:49;;;;;;;6.60;4.60;;;;;;;22.32;66.82;99874.91;106729;1256;60913;-80
2023/08/11 06:36:17;;;;;;;5.40;4.50;;;;;;;22.42;66.24;99872.34;105681;1253;60954;-80
2023/08/11 06:38:45;;;;;;;7.20;4.60;;;;;;;22.43;66.03;99873.98;105744;1258;73912;-80
2023/08/11 06:41:12;;;;;;;5.50;4.50;;;;;;;22.44;66.06;99870.04;105814;1253;68835;-78
2023/08/11 06:43:40;;;;;;;6.60;5.00;;;;;;;22.47;65.62;99869.22;105798;1256;72728;-80
2023/08/11 06:46:07;;;;;;;10.70;5.30;;;;;;;22.46;65.66;99865.73;105752;1258;60577;-79
2023/08/11 06:48:34;;;;;;;8.00;4.70;;;;;;;22.44;65.55;99861.96;105739;1254;60548;-78
2023/08/11 06:51:02;;;;;;;7.30;5.10;;;;;;;22.41;65.65;99861.44;105753;1253;72685;-79
2023/08/11 06:53:29;;;;;;;10.50;5.40;;;;;;;22.40;65.69;99868.29;105750;1252;70035;-78
2023/08/11 06:55:57;;;;;;;8.00;4.70;;;;;;;22.40;65.84;99865.53;105843;1254;72484;-80
2023/08/11 06:58:24;;;;;;;7.50;5.20;;;;;;;22.43;66.14;99860.88;105826;1252;60582;-80
2023/08/11 07:00:53;;;;;;;7.80;5.50;;;;;;;22.45;66.24;99858.52;105967;1258;60776;-80
2023/08/11 07:03:21;;;;;;;9.00;5.30;;;;;;;22.49;66.22;99857.02;107962;1253;73729;-80
2023/08/11 07:05:51;;;;;;;6.50;5.40;;;;;;;22.52;65.78;99857.48;106825;1254;69393;-80
2023/08/11 07:08:19;;;;;;;6.80;4.70;;;;;;;22.57;65.37;99854.08;105949;1258;71074;-80
2023/08/11 07:10:47;;;;;;;4.90;4.40;;;;;;;22.61;64.93;99849.48;106033;1253;60503;-79
2023/08/11 07:13:14;;;;;;;7.30;5.30;;;;;;;22.66;64.73;99849.85;106935;1253;60354;-79
2023/08/11 07:15:42;;;;;;;9.90;4.70;;;;;;;22.73;64.54;99857.23;108312;1253;73805;-79
2023/08/11 07:18:10;;;;;;;6.30;4.50;;;;;;;22.81;64.71;99854.08;106062;1258;70145;-80
2023/08/11 07:20:42;;;;;;;5.50;4.40;;;;;;;22.87;64.60;99853.92;105802;1256;72789;-79
2023/08/11 07:23:10;;;;;;;6.30;4.20;;;;;;;22.95;64.35;99857.19;105906;1253;60929;-80
2023/08/11 07:25:38;;;;;;;5.60;3.90;;;;;;;23.02;63.86;99853.79;106030;1256;59502;-79
2023/08/11 07:28:05;;;;;;;6.10;4.70;;;;;;;23.08;63.27;99859.37;106122;1254;73885;-79
2023/08/11 07:30:32;;;;;;;6.50;4.60;;;;;;;23.12;63.01;99866.20;107031;1256;72879;-79
2023/08/11 07:33:01;;;;;;;6.20;3.80;;;;;;;23.17;62.71;99863.58;107191;1253;72333;-79
2023/08/11 07:35:29;;;;;;;5.30;4.20;;;;;;;23.22;62.25;99862.63;107304;1252;60547;-78
2023/08/11 07:37:56;;;;;;;4.50;3.80;;;;;;;23.27;62.00;99858.23;107745;1256;60107;-79
2023/08/11 07:40:24;;;;;;;5.80;4.10;;;;;;;23.30;61.66;99858.35;107872;1252;72383;-81
2023/08/11 07:42:51;;;;;;;4.60;4.10;;;;;;;23.36;61.26;99861.73;108404;1253;69265;-80
2023/08/11 07:45:18;;;;;;;5.60;3.80;;;;;;;23.42;61.18;99861.22;107802;1254;60485;-81
2023/08/11 07:47:46;;;;;;;8.70;3.80;;;;;;;23.45;61.07;99867.88;106097;1252;60444;-81
2023/08/11 07:50:14;;;;;;;5.90;4.30;;;;;;;23.48;60.65;99873.77;105896;1253;60415;-81
2023/08/11 07:52:41;;;;;;;4.70;3.90;;;;;;;23.51;60.49;99872.79;106164;1253;72615;-81
2023/08/11 07:55:09;;;;;;;5.30;3.80;;;;;;;23.54;60.33;99872.73;105966;1253;69029;-81
2023/08/11 07:57:37;;;;;;;4.80;4.10;;;;;;;23.57;59.99;99872.59;106013;1252;71055;-81
2023/08/11 08:00:06;;;;;;;5.70;4.60;;;;;;;23.58;60.24;99874.34;105952;1253;60508;-80
2023/08/11 08:02:38;;;;;;;4.70;3.40;;;;;;;23.63;60.29;99873.55;105784;1252;60451;-82
2023/08/11 08:05:06;;;;;;;4.90;4.00;;;;;;;23.70;59.81;99881.13;105923;1253;73888;-80
2023/08/11 08:07:39;;;;;;;;;;;;;;;23.75;59.65;99883.24;106056;1253;68880;-79
2023/08/11 08:10:11;;;;;;;4.60;3.80;;;;;;;23.79;59.71;99883.03;106724;1253;73108;-79
2023/08/11 08:12:39;;;;;;;5.40;4.10;;;;;;;23.85;59.81;99886.70;106092;1253;60544;-80
2023/08/11 08:15:08;;;;;;;7.90;4.80;;;;;;;23.93;59.60;99887.89;106271;1253;60549;-80
2023/08/11 08:17:36;;;;;;;6.40;4.70;;;;;;;24.01;59.59;99885.77;106357;1254;74141;-80
2023/08/11 08:20:05;;;;;;;7.90;4.70;;;;;;;24.13;59.30;99878.95;106541;1252;70347;-78
2023/08/11 08:22:35;;;;;;;5.10;3.90;;;;;;;24.24;58.82;99879.33;107795;1253;71374;-79
2023/08/11 08:25:06;;;;;;;5.30;3.90;;;;;;;24.32;58.46;99876.70;108596;1253;60454;-78
2023/08/11 08:27:36;;;;;;;5.70;3.90;;;;;;;24.40;58.28;99879.61;108448;1256;59179;-79
2023/08/11 08:30:07;;;;;;;5.70;4.40;;;;;;;24.47;58.26;99876.82;109061;1253;72465;-79
2023/08/11 08:32:36;;;;;;;6.50;4.30;;;;;;;24.58;58.34;99879.98;108821;1251;68908;-81
2023/08/11 08:35:05;;;;;;;7.30;4.50;;;;;;;24.70;58.15;99880.24;107108;1254;71674;-81
2023/08/11 08:37:33;;;;;;;6.10;4.10;;;;;;;24.85;57.92;99881.15;106422;1256;60537;-81
2023/08/11 08:40:01;;;;;;;5.70;4.80;;;;;;;24.99;57.55;99884.02;106123;1253;60384;-81
2023/08/11 08:42:29;;;;;;;4.40;4.00;;;;;;;25.09;57.24;99881.48;106110;1253;73831;-80
2023/08/11 08:44:56;;;;;;;6.40;4.10;;;;;;;25.13;56.98;99882.13;106357;1259;68843;-81
2023/08/11 08:47:24;;;;;;;6.20;4.90;;;;;;;25.11;56.90;99886.02;107191;1256;72699;-81
2023/08/11 08:49:51;;;;;;;6.80;4.90;;;;;;;25.09;57.26;99886.55;107493;1254;60490;-79
2023/08/11 08:52:19;;;;;;;5.40;4.60;;;;;;;25.07;57.21;99883.38;107046;1259;60423;-81
2023/08/11 08:54:47;;;;;;;5.10;4.50;;;;;;;25.04;57.23;99884.55;107308;1253;73926;-81
2023/08/11 08:57:15;;;;;;;5.50;3.90;;;;;;;24.99;57.37;99882.60;107502;1253;69275;-80
2023/08/11 08:59:44;;;;;;;4.70;4.20;;;;;;;25.04;57.47;99887.05;107030;1254;72734;-79
2023/08/11 09:02:11;;;;;;;6.70;4.50;;;;;;;25.12;57.46;99891.36;107032;1253;60552;-79
2023/08/11 09:04:40;;;;;;;6.30;4.30;;;;;;;25.18;57.62;99887.42;108205;1253;60338;-81
2023/08/11 09:07:07;;;;;;;6.40;4.60;;;;;;;25.26;57.41;99883.23;106578;1253;73974;-79
2023/08/11 09:09:35;;;;;;;7.00;4.50;;;;;;;25.36;57.39;99885.13;105926;1260;70266;-79
2023/08/11 09:12:03;;;;;;;5.50;4.50;;;;;;;25.47;57.19;99888.23;106147;1257;73445;-82
2023/08/11 09:14:31;;;;;;;12.00;4.40;;;;;;;25.52;57.07;99885.17;106007;1257;60483;-79
2023/08/11 09:17:02;;;;;;;7.80;4.70;;;;;;;25.54;57.10;99885.17;106070;1256;62139;-80
2023/08/11 09:19:29;;;;;;;6.50;4.60;;;;;;;25.60;57.06;99890.22;106141;1251;72657;-81
2023/08/11 09:21:57;;;;;;;4.30;3.90;;;;;;;25.77;57.36;99891.88;106250;1253;70158;-81
2023/08/11 09:24:25;;;;;;;7.20;4.50;;;;;;;26.19;57.04;99886.56;106023;1254;72649;-82
2023/08/11 09:26:52;;;;;;;4.40;3.90;;;;;;;26.77;56.45;99878.44;106103;1253;62278;-80
2023/08/11 09:29:20;;;;;;;5.20;4.20;;;;;;;27.54;55.05;99874.59;107060;1253;60415;-79
2023/08/11 09:31:49;;;;;;;4.50;3.90;;;;;;;28.24;53.69;99870.01;107169;1253;72362;-79
2023/08/11 09:34:17;;;;;;;7.10;3.60;;;;;;;28.72;52.11;99861.73;106898;1253;68847;-79
2023/08/11 09:36:46;;;;;;;8.40;4.80;;;;;;;29.04;51.22;99862.60;106376;1251;71403;-82
2023/08/11 09:39:14;;;;;;;5.60;4.80;;;;;;;29.20;50.53;99858.05;107811;1253;60321;-78
2023/08/11 09:41:45;;;;;;;8.60;4.30;;;;;;;29.27;50.23;99855.12;107628;1253;59248;-80
2023/08/11 09:44:17;;;;;;;4.90;3.80;;;;;;;29.45;49.92;99858.21;108359;1251;73859;-78
2023/08/11 09:46:46;;;;;;;6.40;4.10;;;;;;;29.76;49.61;99858.34;108934;1258;68799;-82
2023/08/11 09:49:14;;;;;;;5.80;4.30;;;;;;;30.29;49.23;99855.14;109009;1252;72865;-80
2023/08/11 09:51:41;;;;;;;3.90;3.50;;;;;;;30.92;48.08;99858.80;106818;1254;59340;-81
2023/08/11 09:54:10;;;;;;;5.10;3.80;;;;;;;31.57;47.13;99856.23;106957;1253;60271;-82
2023/08/11 09:56:40;;;;;;;4.30;3.80;;;;;;;32.16;46.17;99849.14;107151;1258;72572;-81
2023/08/11 09:59:12;;;;;;;6.40;3.80;;;;;;;32.71;44.72;99832.89;107972;1253;70299;-82
2023/08/11 10:01:41;;;;;;;;;;;;;;;33.11;44.08;99826.50;106910;1257;72798;-78
2023/08/11 10:04:13;;;;;;;4.00;3.70;;;;;;;33.44;42.68;99821.45;106567;1254;60445;-79
2023/08/11 10:06:42;;;;;;;3.70;3.40;;;;;;;33.75;42.53;99820.58;106427;1253;60385;-82
2023/08/11 10:09:12;;;;;;;5.70;4.00;;;;;;;34.15;41.97;99817.42;105974;1253;72972;-82
2023/08/11 10:11:41;;;;;;;3.90;3.50;;;;;;;34.50;41.48;99811.84;105926;1253;61719;-82
2023/08/11 10:14:10;;;;;;;4.40;3.30;;;;;;;34.87;40.72;99810.20;106060;1251;62449;-81
2023/08/11 10:16:38;;;;;;;5.20;3.50;;;;;;;35.16;39.93;99802.42;105946;1260;60605;-81
2023/08/11 10:19:05;;;;;;;5.80;3.80;;;;;;;35.36;39.75;99806.30;106073;1257;60489;-81
2023/08/11 10:21:33;;;;;;;4.70;3.70;;;;;;;35.66;39.05;99800.59;107397;1251;63715;-82
2023/08/11 10:24:00;;;;;;;3.50;2.90;;;;;;;35.98;38.61;99803.45;108060;1251;60364;-83
2023/08/11 10:26:31;;;;;;;3.00;2.60;;;;;;;36.27;37.18;99798.16;106743;1258;65161;-82
2023/08/11 10:28:58;;;;;;;2.80;2.60;;;;;;;36.39;36.15;99796.20;106368;1260;60541;-82
2023/08/11 10:31:26;;;;;;;5.80;2.60;;;;;;;36.53;35.96;99795.63;106915;1251;60404;-78
2023/08/11 10:33:53;;;;;;;4.10;2.80;;;;;;;36.68;35.62;99797.41;107055;1259;63669;-79
2023/08/11 10:36:26;;;;;;;3.80;3.20;;;;;;;36.79;35.47;99797.95;106534;1251;60540;-80
2023/08/11 10:39:05;;;;;;;4.20;2.80;;;;;;;36.88;35.27;99797.61;106181;1251;63810;-79
2023/08/11 10:41:32;;;;;;;3.70;2.80;;;;;;;36.97;35.32;99799.50;106594;1253;59769;-78
2023/08/11 10:44:00;;;;;;;3.00;2.60;;;;;;;37.18;35.11;99798.15;105774;1253;60609;-82
2023/08/11 10:46:29;;;;;;;2.80;2.50;;;;;;;37.40;34.93;99797.89;106399;1259;65201;-81
2023/08/11 10:48:58;;;;;;;4.10;3.20;;;;;;;37.59;34.83;99793.38;106437;1253;60377;-80
2023/08/11 10:51:36;;;;;;;4.80;3.00;;;;;;;37.80;34.45;99791.79;106502;1254;63964;-81
2023/08/11 10:54:08;;;;;;;3.60;2.80;;;;;;;38.10;34.17;99783.73;107560;1251;60341;-79
2023/08/11 10:56:44;;;;;;;2.90;2.60;;;;;;;38.41;33.62;99781.98;107402;1253;60439;-82
2023/08/11 10:59:19;;;;;;;2.90;2.70;;;;;;;38.78;33.20;99787.65;106857;1253;64929;-83
2023/08/11 11:01:48;;;;;;;3.00;2.70;;;;;;;39.04;32.87;99797.00;106651;1258;61419;-82
2023/08/11 11:04:16;;;;;;;3.20;2.90;;;;;;;39.25;32.96;99801.30;106879;1253;73481;-81
2023/08/11 11:06:44;;;;;;;2.90;2.60;;;;;;;39.58;32.53;99797.00;105943;1253;953544;-82
2023/08/11 11:10:33;;;;;;;2.90;2.70;;;;;;;40.09;31.88;99802.02;104440;1292;600020;-81
2023/08/11 11:13:16;;;;;;;3.20;2.80;;;;;;;40.25;31.75;99799.09;106593;1268;59187;-79
2023/08/11 11:15:44;;;;;;;2.90;2.50;;;;;;;40.45;31.58;99789.07;106648;1267;59367;-82
2023/08/11 11:18:12;;;;;;;3.30;2.80;;;;;;;40.70;31.34;99784.92;106201;1266;62132;-84
2023/08/11 11:20:39;;;;;;;3.30;3.00;;;;;;;40.93;30.97;99784.67;105805;1266;61472;-83
2023/08/11 11:23:07;;;;;;;3.40;3.10;;;;;;;41.03;31.02;99786.34;105787;1266;186370;-82
2023/08/11 11:25:34;;;;;;;4.70;3.00;;;;;;;41.23;30.75;99780.25;105555;1266;60942;-79
2023/08/11 11:28:02;;;;;;;3.40;2.60;;;;;;;41.51;30.35;99774.04;105363;1266;59344;-80
2023/08/11 11:30:29;;;;;;;2.80;2.60;;;;;;;41.60;30.11;99770.57;105833;1264;62179;-80
2023/08/11 11:32:58;;;;;;;3.30;2.60;;;;;;;41.56;30.02;99770.29;107695;1258;60219;-78